createdAt,value
2018-06-02T00:01:51.566Z,5.50
2018-06-02T00:04:19.085Z,6.50
2018-06-02T00:06:46.693Z,6.60
2018-06-02T00:09:14.205Z,5.37
2018-06-02T00:11:41.751Z,5.90
2018-06-02T00:14:09.301Z,7.00
2018-06-02T00:16:36.811Z,6.07
2018-06-02T00:19:04.351Z,5.63
2018-06-02T00:21:31.872Z,5.70
2018-06-02T00:23:59.384Z,5.90
2018-06-02T00:26:26.936Z,6.50
2018-06-02T00:28:54.466Z,6.23
2018-06-02T00:31:22.365Z,6.90
2018-06-02T00:33:49.884Z,7.10
2018-06-02T00:36:17.400Z,6.30
2018-06-02T00:38:44.941Z,5.90
2018-06-02T00:41:12.468Z,7.23
2018-06-02T00:43:40.249Z,6.97
2018-06-02T00:46:07.761Z,6.87
2018-06-02T00:48:35.272Z,6.23
2018-06-02T00:51:02.829Z,6.50
2018-06-02T00:53:30.360Z,7.67
2018-06-02T00:55:57.911Z,6.50
2018-06-02T00:58:25.431Z,5.97
2018-06-02T01:00:52.954Z,6.40
2018-06-02T01:03:20.497Z,6.10
2018-06-02T01:05:48.424Z,6.57
2018-06-02T01:08:16.060Z,6.47
2018-06-02T01:10:43.580Z,7.43
2018-06-02T01:13:11.508Z,7.40
2018-06-02T01:15:39.060Z,6.20
2018-06-02T01:18:07.549Z,6.70
2018-06-02T01:20:35.210Z,6.63
2018-06-02T01:23:02.748Z,6.20
2018-06-02T01:25:30.268Z,6.30
2018-06-02T01:27:57.809Z,6.63
2018-06-02T01:30:25.317Z,7.53
2018-06-02T01:32:52.974Z,7.10
2018-06-02T01:35:20.506Z,7.80
2018-06-02T01:37:48.025Z,7.03
2018-06-02T01:40:15.582Z,6.97
2018-06-02T01:42:43.101Z,6.50
2018-06-02T01:45:11.694Z,7.50
2018-06-02T01:47:39.233Z,7.90
2018-06-02T01:50:06.756Z,7.77
2018-06-02T01:52:34.312Z,7.80
2018-06-02T01:55:01.841Z,8.20
2018-06-02T01:57:29.400Z,7.60
2018-06-02T01:59:56.925Z,8.30
2018-06-02T02:02:24.449Z,7.77
2018-06-02T02:04:51.988Z,7.00
2018-06-02T02:07:19.520Z,7.40
2018-06-02T02:09:47.078Z,7.40
2018-06-02T02:12:14.600Z,6.47
2018-06-02T02:14:42.129Z,7.37
2018-06-02T02:17:09.698Z,7.37
2018-06-02T02:19:37.229Z,6.93
2018-06-02T02:22:04.792Z,7.13
2018-06-02T02:24:32.304Z,6.87
2018-06-02T02:26:59.825Z,7.60
2018-06-02T02:29:27.381Z,6.77
2018-06-02T02:31:54.909Z,7.00
2018-06-02T02:34:22.488Z,7.00
2018-06-02T02:36:50.013Z,6.87
2018-06-02T02:39:17.541Z,7.07
2018-06-02T02:41:45.094Z,7.50
2018-06-02T02:44:12.604Z,7.80
2018-06-02T02:46:40.392Z,6.90
2018-06-02T02:49:07.913Z,6.70
2018-06-02T02:51:35.444Z,7.53
2018-06-02T02:54:02.992Z,7.23
2018-06-02T02:56:30.525Z,7.87
2018-06-02T02:58:58.080Z,6.30
2018-06-02T03:01:25.592Z,7.10
2018-06-02T03:03:53.109Z,7.77
2018-06-02T03:06:20.657Z,7.50
2018-06-02T03:08:48.181Z,7.47
2018-06-02T03:11:15.733Z,6.60
2018-06-02T03:13:44.066Z,8.10
2018-06-02T03:16:11.645Z,6.80
2018-06-02T03:18:39.189Z,6.43
2018-06-02T03:21:06.711Z,7.90
2018-06-02T03:23:34.699Z,7.70
2018-06-02T03:26:02.217Z,8.20
2018-06-02T03:28:29.748Z,8.77
2018-06-02T03:30:57.296Z,7.67
2018-06-02T03:33:24.821Z,7.37
2018-06-02T03:35:52.453Z,7.77
2018-06-02T03:38:19.969Z,7.63
2018-06-02T03:40:47.488Z,7.73
2018-06-02T03:43:15.033Z,7.07
2018-06-02T03:45:42.567Z,7.23
2018-06-02T03:48:10.461Z,8.83
2018-06-02T03:50:37.992Z,7.90
2018-06-02T03:53:05.564Z,8.20
2018-06-02T03:55:33.111Z,8.43
2018-06-02T03:58:00.625Z,7.37
2018-06-02T04:00:28.188Z,7.80
2018-06-02T04:02:55.696Z,8.03
2018-06-02T04:05:23.216Z,7.63
2018-06-02T04:07:50.760Z,8.30
2018-06-02T04:10:18.272Z,7.37
2018-06-02T04:12:46.189Z,8.30
2018-06-02T04:15:14.280Z,8.40
2018-06-02T04:17:44.321Z,7.80
2018-06-02T04:20:11.865Z,7.90
2018-06-02T04:22:39.397Z,8.10
2018-06-02T04:25:07.077Z,8.10
2018-06-02T04:27:34.585Z,8.50
2018-06-02T04:30:02.116Z,7.70
2018-06-02T04:32:29.661Z,6.93
2018-06-02T04:34:57.176Z,6.60
2018-06-02T04:37:24.721Z,6.70
2018-06-02T04:39:52.248Z,7.47
2018-06-02T04:42:19.769Z,6.87
2018-06-02T04:44:47.313Z,7.83
2018-06-02T04:47:14.840Z,7.80
2018-06-02T04:49:42.401Z,6.70
2018-06-02T04:52:09.925Z,6.90
2018-06-02T04:54:37.461Z,7.40
2018-06-02T04:57:05.009Z,6.70
2018-06-02T04:59:32.539Z,6.60
2018-06-02T05:02:00.089Z,7.60
2018-06-02T05:04:27.674Z,6.87
2018-06-02T05:06:55.165Z,6.40
2018-06-02T05:09:22.709Z,6.93
2018-06-02T05:11:50.224Z,6.40
2018-06-02T05:14:17.788Z,6.53
2018-06-02T05:16:45.317Z,6.07
2018-06-02T05:19:12.841Z,5.40
2018-06-02T05:21:40.388Z,7.63
2018-06-02T05:24:08.252Z,5.70
2018-06-02T05:26:35.940Z,5.10
2018-06-02T05:29:03.479Z,5.63
2018-06-02T05:31:30.999Z,5.50
2018-06-02T05:33:58.553Z,5.67
2018-06-02T05:36:26.605Z,5.60
2018-06-02T05:38:54.144Z,5.33
2018-06-02T05:41:21.660Z,5.43
2018-06-02T05:43:49.182Z,5.23
2018-06-02T05:46:16.720Z,4.53
2018-06-02T05:48:44.233Z,4.30
2018-06-02T05:51:11.776Z,4.90
2018-06-02T05:53:39.286Z,5.00
2018-06-02T05:56:06.801Z,4.90
2018-06-02T05:58:34.349Z,4.70
2018-06-02T06:01:01.874Z,4.33
2018-06-02T06:03:29.950Z,4.93
2018-06-02T06:05:57.606Z,5.80
2018-06-02T06:08:25.496Z,4.80
2018-06-02T06:10:53.063Z,4.77
2018-06-02T06:13:20.614Z,5.00
2018-06-02T06:15:48.165Z,5.90
2018-06-02T06:18:15.722Z,5.47
2018-06-02T06:20:43.245Z,4.83
2018-06-02T06:23:11.667Z,4.77
2018-06-02T06:25:39.177Z,5.20
2018-06-02T06:28:07.302Z,4.43
2018-06-02T06:30:34.849Z,4.00
2018-06-02T06:33:02.410Z,5.50
2018-06-02T06:35:31.000Z,4.70
2018-06-02T06:37:58.516Z,4.20
2018-06-02T06:40:26.120Z,4.47
2018-06-02T06:42:53.661Z,4.47
2018-06-02T06:45:21.192Z,5.00
2018-06-02T06:47:48.732Z,3.90
2018-06-02T06:50:16.249Z,3.73
2018-06-02T06:52:43.996Z,4.10
2018-06-02T06:55:11.578Z,3.60
2018-06-02T06:57:39.151Z,3.67
2018-06-02T07:00:07.720Z,4.00
2018-06-02T07:02:35.232Z,3.40
2018-06-02T07:05:03.029Z,3.60
2018-06-02T07:07:31.627Z,3.40
2018-06-02T07:09:59.152Z,3.80
2018-06-02T07:12:27.769Z,3.27
2018-06-02T07:14:55.281Z,3.10
2018-06-02T07:17:24.015Z,3.00
2018-06-02T07:19:51.535Z,2.90
2018-06-02T07:22:19.057Z,2.90
2018-06-02T07:24:46.608Z,3.40
2018-06-02T07:27:14.128Z,2.77
2018-06-02T07:29:41.893Z,3.00
2018-06-02T07:32:09.415Z,3.50
2018-06-02T07:34:38.852Z,3.80
2018-06-02T07:37:06.397Z,3.77
2018-06-02T07:39:33.913Z,3.03
2018-06-02T07:42:01.649Z,3.20
2018-06-02T07:44:29.184Z,3.37
2018-06-02T07:46:57.800Z,3.20
2018-06-02T07:49:25.351Z,3.07
2018-06-02T07:51:52.864Z,4.03
2018-06-02T07:54:20.421Z,2.87
2018-06-02T07:56:47.941Z,2.73
2018-06-02T07:59:15.456Z,3.47
2018-06-02T08:01:43.002Z,2.93
2018-06-02T08:04:10.516Z,2.90
2018-06-02T08:06:38.420Z,3.40
2018-06-02T08:09:05.943Z,2.77
2018-06-02T08:11:34.006Z,2.90
2018-06-02T08:14:01.557Z,2.60
2018-06-02T08:16:29.214Z,2.67
2018-06-02T08:18:56.769Z,2.50
2018-06-02T08:21:24.348Z,3.30
2018-06-02T08:23:52.418Z,2.43
2018-06-02T08:26:19.952Z,2.87
2018-06-02T08:28:47.640Z,2.43
2018-06-02T08:31:16.019Z,2.90
2018-06-02T08:33:43.537Z,2.53
2018-06-02T08:36:11.106Z,2.80
2018-06-02T08:38:38.664Z,1.97
2018-06-02T08:41:06.459Z,2.90
2018-06-02T08:43:34.621Z,2.93
2018-06-02T08:46:02.252Z,2.20
2018-06-02T08:48:30.061Z,2.70
2018-06-02T08:50:57.628Z,2.60
2018-06-02T08:53:25.161Z,2.87
2018-06-02T08:55:52.745Z,2.40
2018-06-02T08:58:20.298Z,2.20
2018-06-02T09:00:47.864Z,2.40
2018-06-02T09:03:15.441Z,1.90
2018-06-02T09:05:43.133Z,2.03
2018-06-02T09:08:10.996Z,2.17
2018-06-02T09:10:38.550Z,2.27
2018-06-02T09:13:06.070Z,3.43
2018-06-02T09:15:33.697Z,3.00
2018-06-02T09:18:01.287Z,2.43
2018-06-02T09:20:28.921Z,2.63
2018-06-02T09:22:56.457Z,2.50
2018-06-02T09:25:23.977Z,2.60
2018-06-02T09:27:51.574Z,3.10
2018-06-02T09:30:19.064Z,4.03
2018-06-02T09:32:47.055Z,2.80
2018-06-02T09:35:14.619Z,2.87
2018-06-02T09:37:42.372Z,3.20
2018-06-02T09:40:09.989Z,2.70
2018-06-02T09:42:37.581Z,3.47
2018-06-02T09:45:05.189Z,3.40
2018-06-02T09:47:32.817Z,2.80
2018-06-02T09:50:00.464Z,2.40
2018-06-02T09:52:28.000Z,3.17
2018-06-02T09:54:55.539Z,2.30
2018-06-02T09:57:23.253Z,2.73
2018-06-02T09:59:51.329Z,2.60
2018-06-02T10:02:18.849Z,2.93
2018-06-02T10:04:46.404Z,2.53
2018-06-02T10:07:13.932Z,3.07
2018-06-02T10:09:41.649Z,3.13
2018-06-02T10:12:09.331Z,2.63
2018-06-02T10:14:36.922Z,3.70
2018-06-02T10:17:04.476Z,3.70
2018-06-02T10:19:32.006Z,3.13
2018-06-02T10:21:59.577Z,2.80
2018-06-02T10:24:28.050Z,3.67
2018-06-02T10:26:56.023Z,3.93
2018-06-02T10:29:23.577Z,3.37
2018-06-02T10:31:51.119Z,3.60
2018-06-02T10:34:18.673Z,4.43
2018-06-02T10:36:46.973Z,4.17
2018-06-02T10:39:14.497Z,3.70
2018-06-02T10:41:42.064Z,3.70
2018-06-02T10:44:09.584Z,2.80
2018-06-02T10:46:37.149Z,3.00
2018-06-02T10:49:04.934Z,3.10
2018-06-02T10:51:32.460Z,2.93
2018-06-02T10:54:00.000Z,3.23
2018-06-02T10:56:27.522Z,3.40
2018-06-02T10:58:55.622Z,3.63
2018-06-02T11:01:23.693Z,3.00
2018-06-02T11:03:51.228Z,4.07
2018-06-02T11:06:18.768Z,3.80
2018-06-02T11:08:46.288Z,3.90
2018-06-02T11:11:13.828Z,3.40
2018-06-02T11:13:41.335Z,3.10
2018-06-02T11:16:08.870Z,3.13
2018-06-02T11:18:36.425Z,2.37
2018-06-02T11:21:03.949Z,2.80
2018-06-02T11:23:31.634Z,2.67
2018-06-02T11:25:59.490Z,2.60
2018-06-02T11:28:27.083Z,3.63
2018-06-02T11:30:54.655Z,3.07
2018-06-02T11:33:22.271Z,2.43
2018-06-02T11:35:50.096Z,2.30
2018-06-02T11:38:17.624Z,2.40
2018-06-02T11:40:45.154Z,2.90
2018-06-02T11:43:12.921Z,2.47
2018-06-02T11:45:40.785Z,2.57
2018-06-02T11:48:08.372Z,2.87
2018-06-02T11:50:35.889Z,2.80
2018-06-02T11:53:03.613Z,3.23
2018-06-02T11:55:31.708Z,2.63
2018-06-02T11:57:59.387Z,2.80
2018-06-02T12:00:27.308Z,3.00
2018-06-02T12:02:55.014Z,3.20
2018-06-02T12:05:22.754Z,3.43
2018-06-02T12:07:50.430Z,3.07
2018-06-02T12:10:18.089Z,3.10
2018-06-02T12:12:45.888Z,2.40
2018-06-02T12:15:13.444Z,2.60
2018-06-02T12:17:41.075Z,3.40
2018-06-02T12:20:08.754Z,3.33
2018-06-02T12:22:36.288Z,2.63
2018-06-02T12:25:03.881Z,2.40
2018-06-02T12:27:31.505Z,2.47
2018-06-02T12:29:59.032Z,2.27
2018-06-02T12:32:26.617Z,1.87
2018-06-02T12:34:54.176Z,1.90
2018-06-02T12:37:22.291Z,1.43
2018-06-02T12:39:49.806Z,2.10
2018-06-02T12:42:17.390Z,1.70
2018-06-02T12:44:45.055Z,2.00
2018-06-02T12:47:12.580Z,1.60
2018-06-02T12:49:40.503Z,2.50
2018-06-02T12:52:08.041Z,1.97
2018-06-02T12:54:35.577Z,2.17
2018-06-02T12:57:03.172Z,2.20
2018-06-02T12:59:30.705Z,2.63
2018-06-02T13:01:58.513Z,1.80
2018-06-02T13:04:26.047Z,1.83
2018-06-02T13:06:53.572Z,1.40
2018-06-02T13:09:21.233Z,1.70
2018-06-02T13:11:48.772Z,1.87
2018-06-02T13:14:16.713Z,1.70
2018-06-02T13:16:44.288Z,1.30
2018-06-02T13:19:11.899Z,1.33
2018-06-02T13:21:39.595Z,1.30
2018-06-02T13:24:07.250Z,1.60
2018-06-02T13:26:35.209Z,1.55
2018-06-02T13:29:02.887Z,2.03
2018-06-02T13:31:30.629Z,1.60
2018-06-02T13:33:58.216Z,1.48
2018-06-02T13:36:26.794Z,1.83
2018-06-02T13:38:54.661Z,1.93
2018-06-02T13:41:22.527Z,1.60
2018-06-02T13:43:50.120Z,1.90
2018-06-02T13:46:17.669Z,2.00
2018-06-02T13:48:45.411Z,2.00
2018-06-02T13:51:13.448Z,2.47
2018-06-02T13:53:40.974Z,2.23
2018-06-02T13:56:08.498Z,2.20
2018-06-02T13:58:36.240Z,2.10
2018-06-02T14:01:03.765Z,2.53
2018-06-02T14:03:31.483Z,2.70
2018-06-02T14:05:59.021Z,2.50
2018-06-02T14:08:26.549Z,1.73
2018-06-02T14:10:54.160Z,2.30
2018-06-02T14:13:21.681Z,2.63
2018-06-02T14:15:49.281Z,2.50
2018-06-02T14:18:16.820Z,2.43
2018-06-02T14:20:44.343Z,2.40
2018-06-02T14:23:11.960Z,2.70
2018-06-02T14:25:39.830Z,2.20
2018-06-02T14:28:07.431Z,2.20
2018-06-02T14:30:35.251Z,2.33
2018-06-02T14:33:02.841Z,2.63
2018-06-02T14:35:30.428Z,2.50
2018-06-02T14:37:58.238Z,2.13
2018-06-02T14:40:26.410Z,2.17
2018-06-02T14:42:54.278Z,1.80
2018-06-02T14:45:21.830Z,2.40
2018-06-02T14:47:49.590Z,2.43
2018-06-02T14:50:17.364Z,2.33
2018-06-02T14:52:45.333Z,2.93
2018-06-02T14:55:13.082Z,2.40
2018-06-02T14:57:40.726Z,2.27
2018-06-02T15:00:08.627Z,2.93
2018-06-02T15:02:36.284Z,2.43
2018-06-02T15:05:04.358Z,2.57
2018-06-02T15:07:32.020Z,2.90
2018-06-02T15:09:59.785Z,2.83
2018-06-02T15:12:27.499Z,3.50
2018-06-02T15:14:55.052Z,2.97
2018-06-02T15:17:22.601Z,3.67
2018-06-02T15:19:50.117Z,3.47
2018-06-02T15:22:18.019Z,2.83
2018-06-02T15:24:46.369Z,3.67
2018-06-02T15:27:13.925Z,3.10
2018-06-02T15:29:41.481Z,3.50
2018-06-02T15:32:09.010Z,3.57
2018-06-02T15:34:36.541Z,3.40
2018-06-02T15:37:04.231Z,3.30
2018-06-02T15:39:31.951Z,3.83
2018-06-02T15:41:59.787Z,4.57
2018-06-02T15:44:27.456Z,4.00
2018-06-02T15:46:55.089Z,3.80
2018-06-02T15:49:22.901Z,4.33
2018-06-02T15:51:50.651Z,5.23
2018-06-02T15:54:18.716Z,4.53
2018-06-02T15:56:46.333Z,4.60
2018-06-02T15:59:14.007Z,4.77
2018-06-02T16:01:41.556Z,4.57
2018-06-02T16:04:09.264Z,4.40
2018-06-02T16:06:37.132Z,4.30
2018-06-02T16:09:06.189Z,4.17
2018-06-02T16:11:33.890Z,4.67
2018-06-02T16:14:01.533Z,4.77
2018-06-02T16:16:29.196Z,4.17
2018-06-02T16:18:57.078Z,4.40
2018-06-02T16:21:25.049Z,4.30
2018-06-02T16:23:52.566Z,4.00
2018-06-02T16:26:20.124Z,3.53
2018-06-02T16:28:47.644Z,4.37
2018-06-02T16:31:15.491Z,4.30
2018-06-02T16:33:43.082Z,4.27
2018-06-02T16:36:10.589Z,4.43
2018-06-02T16:38:38.133Z,5.60
2018-06-02T16:41:05.825Z,4.33
2018-06-02T16:43:33.600Z,4.23
2018-06-02T16:46:01.153Z,4.53
2018-06-02T16:48:28.707Z,4.23
2018-06-02T16:50:56.391Z,4.50
2018-06-02T16:53:23.915Z,3.87
2018-06-02T16:55:51.595Z,3.90
2018-06-02T16:58:19.136Z,4.33
2018-06-02T17:00:46.783Z,4.30
2018-06-02T17:03:14.481Z,4.13
2018-06-02T17:05:42.247Z,3.80
2018-06-02T17:08:10.110Z,4.60
2018-06-02T17:10:37.752Z,4.07
2018-06-02T17:13:05.549Z,4.20
2018-06-02T17:15:33.404Z,4.40
2018-06-02T17:18:01.473Z,3.93
2018-06-02T17:20:29.342Z,3.43
2018-06-02T17:22:56.888Z,4.83
2018-06-02T17:25:24.428Z,4.73
2018-06-02T17:27:51.981Z,4.53
2018-06-02T17:30:19.631Z,4.03
2018-06-02T17:32:47.462Z,4.80
2018-06-02T17:35:14.981Z,4.40
2018-06-02T17:37:42.496Z,4.67
2018-06-02T17:40:10.066Z,4.43
2018-06-02T17:42:37.590Z,5.50
2018-06-02T17:45:05.326Z,4.30
2018-06-02T17:47:32.864Z,4.20
2018-06-02T17:50:00.388Z,4.73
2018-06-02T17:52:28.002Z,5.47
2018-06-02T17:54:55.538Z,4.87
2018-06-02T17:57:23.080Z,4.03
2018-06-02T17:59:50.621Z,4.30
2018-06-02T18:02:18.137Z,4.10
2018-06-02T18:04:45.723Z,4.43
2018-06-02T18:07:13.289Z,4.80
2018-06-02T18:09:40.833Z,4.80
2018-06-02T18:12:08.398Z,4.63
2018-06-02T18:14:35.981Z,5.17
2018-06-02T18:17:03.685Z,4.27
2018-06-02T18:19:31.246Z,5.23
2018-06-02T18:21:59.860Z,4.27
2018-06-02T18:24:28.486Z,4.27
2018-06-02T18:26:56.005Z,5.10
2018-06-02T18:29:23.541Z,4.00
2018-06-02T18:31:51.052Z,4.70
2018-06-02T18:34:18.613Z,5.67
2018-06-02T18:36:46.201Z,5.57
2018-06-02T18:39:13.737Z,4.77
2018-06-02T18:41:41.287Z,4.70
2018-06-02T18:44:08.852Z,5.00
2018-06-02T18:46:36.361Z,4.50
2018-06-02T18:49:03.892Z,4.60
2018-06-02T18:51:31.412Z,5.30
2018-06-02T18:53:58.996Z,6.30
2018-06-02T18:56:26.512Z,5.30
2018-06-02T18:59:00.933Z,5.53
2018-06-02T19:01:28.686Z,5.20
2018-06-02T19:03:56.235Z,4.87
2018-06-02T19:06:23.812Z,5.50
2018-06-02T19:08:51.679Z,6.00
2018-06-02T19:11:19.271Z,6.77
2018-06-02T19:13:46.854Z,6.50
2018-06-02T19:16:14.401Z,6.17
2018-06-02T19:18:41.947Z,6.90
2018-06-02T19:21:09.456Z,5.80
2018-06-02T19:23:37.007Z,6.20
2018-06-02T19:26:04.529Z,6.77
2018-06-02T19:28:32.049Z,6.20
2018-06-02T19:30:59.588Z,7.07
2018-06-02T19:33:27.113Z,7.30
2018-06-02T19:35:54.668Z,6.13
2018-06-02T19:38:22.188Z,7.03
2018-06-02T19:40:49.709Z,6.73
2018-06-02T19:43:17.264Z,7.43
2018-06-02T19:45:44.868Z,6.00
2018-06-02T19:48:12.788Z,6.37
2018-06-02T19:50:40.400Z,5.63
2018-06-02T19:53:07.936Z,5.30
2018-06-02T19:55:35.616Z,5.47
2018-06-02T19:58:03.278Z,5.30
2018-06-02T20:00:31.145Z,6.33
2018-06-02T20:02:59.013Z,5.53
2018-06-02T20:05:26.880Z,5.97
2018-06-02T20:07:54.796Z,6.00
2018-06-02T20:10:22.573Z,5.70
2018-06-02T20:12:50.683Z,7.80
2018-06-02T20:15:18.344Z,6.77
2018-06-02T20:17:46.222Z,7.23
2018-06-02T20:20:14.077Z,6.40
2018-06-02T20:22:41.871Z,8.00
2018-06-02T20:25:09.714Z,6.90
2018-06-02T20:27:37.447Z,7.23
2018-06-02T20:30:06.109Z,7.70
2018-06-02T20:32:34.024Z,7.90
2018-06-02T20:35:01.754Z,8.07
2018-06-02T20:37:29.860Z,7.03
2018-06-02T20:39:57.725Z,9.20
2018-06-02T20:42:25.522Z,7.33
2018-06-02T20:44:53.459Z,9.20
2018-06-02T20:47:21.326Z,8.67
2018-06-02T20:49:49.192Z,8.07
2018-06-02T20:52:16.905Z,8.50
2018-06-02T20:54:44.564Z,8.67
2018-06-02T20:57:12.486Z,8.70
2018-06-02T20:59:40.351Z,8.47
2018-06-02T21:02:08.936Z,9.23
2018-06-02T21:04:37.575Z,10.10
2018-06-02T21:07:05.260Z,8.53
2018-06-02T21:09:33.036Z,8.17
2018-06-02T21:12:00.711Z,11.07
2018-06-02T21:14:28.620Z,10.50
2018-06-02T21:16:56.653Z,15.37
2018-06-02T21:19:24.628Z,16.40
2018-06-02T21:21:52.482Z,12.03
2018-06-02T21:24:20.656Z,11.77
2018-06-02T21:26:48.830Z,11.87
2018-06-02T21:29:16.492Z,10.87
2018-06-02T21:31:44.240Z,8.20
2018-06-02T21:34:11.835Z,10.03
2018-06-02T21:36:39.682Z,8.20
2018-06-02T21:39:07.855Z,8.30
2018-06-02T21:41:35.522Z,9.03
2018-06-02T21:44:03.040Z,7.07
2018-06-02T21:46:30.611Z,8.57
2018-06-02T21:48:58.128Z,8.37
2018-06-02T21:51:25.946Z,7.60
2018-06-02T21:53:53.498Z,8.00
2018-06-02T21:56:21.048Z,8.30
2018-06-02T21:58:48.609Z,8.40
2018-06-02T22:01:16.125Z,7.40
2018-06-02T22:03:44.049Z,8.20
2018-06-02T22:06:11.573Z,6.80
2018-06-02T22:08:39.124Z,8.83
2018-06-02T22:11:06.673Z,9.40
2018-06-02T22:13:34.266Z,9.33
2018-06-02T22:16:02.474Z,9.10
2018-06-02T22:18:30.014Z,8.90
2018-06-02T22:20:57.681Z,9.00
2018-06-02T22:23:25.236Z,8.90
2018-06-02T22:25:52.762Z,9.30
2018-06-02T22:28:20.344Z,8.33
2018-06-02T22:30:47.876Z,8.90
2018-06-02T22:33:15.430Z,8.43
2018-06-02T22:35:42.995Z,8.90
2018-06-02T22:38:10.549Z,9.73
2018-06-02T22:40:38.484Z,9.70
2018-06-02T22:43:06.101Z,9.70
2018-06-02T22:45:33.629Z,8.57
2018-06-02T22:48:01.192Z,9.73
2018-06-02T22:50:28.731Z,9.50
2018-06-02T22:52:56.409Z,9.60
2018-06-02T22:55:23.970Z,10.53
2018-06-02T22:57:51.497Z,10.60
2018-06-02T23:00:19.872Z,9.30
2018-06-02T23:02:47.408Z,8.80
2018-06-02T23:05:15.189Z,11.13
2018-06-02T23:07:42.748Z,9.50
2018-06-02T23:10:10.264Z,9.77
2018-06-02T23:12:37.813Z,10.40
2018-06-02T23:15:05.850Z,10.27
2018-06-02T23:17:33.716Z,8.63
2018-06-02T23:20:01.241Z,9.50
2018-06-02T23:22:39.052Z,8.80
2018-06-02T23:25:06.581Z,9.10
2018-06-02T23:27:34.097Z,9.30
2018-06-02T23:30:01.647Z,9.37
2018-06-02T23:32:29.168Z,10.07
2018-06-02T23:34:57.053Z,10.10
2018-06-02T23:37:24.584Z,10.47
2018-06-02T23:39:52.122Z,9.53
2018-06-02T23:42:19.665Z,9.57
2018-06-02T23:44:47.195Z,10.03
2018-06-02T23:47:14.753Z,9.70
2018-06-02T23:49:42.280Z,10.20
2018-06-02T23:52:09.807Z,9.00
2018-06-02T23:54:37.354Z,10.27
2018-06-02T23:57:05.927Z,9.53
2018-06-02T23:59:33.665Z,9.17
